x

North Nomad (46184) Wave Buoy

8:00am - Wed 17th Sep 2014 All times are AKDT. -8 hours from GMT.

  • Sig Wave height 5.6ft
  • Peak Period 10s
  • Wind
    9mph, 11mph gusts
  • Sea Temp 60°f
  • Air Temp 58°f
  • Sea Pressure 1006.7mb
  • North Nomad
  • North Nomad

More Historic Weather Station data

Upgrade to MSW Pro to gain access to the past 30 days of data for over 8000 Wavebouys and Weather Stations around the globe.

Join Pro

Comparision Forecast

View Surf forecast
   
Wed 09/17 8:00am 5.5ft 10s 9 11 mph 1006.7mb 60f 58f
7:00am 5.5ft 20s 7 11 mph 1007.2mb 60f 58f
6:00am 5.5ft 10s 7 9 mph 1007.9mb 60f 58f
5:00am 5ft 10s 4 7 mph 1008.4mb 60f 58f
4:00am 5ft 10s 4
mph
1009.1mb 60f 57f
3:00am 6ft 12s 4 7 mph 1009.8mb 60f 58f
2:00am 5ft 11s 2 4 mph 1010.5mb 60f 57f
1:00am 6ft 12s 2 4 mph 1010.9mb 60f 57f
12:00am 6.5ft 8s 2 4 mph 1011.4mb 60f 58f
Tue 09/16 11:00pm 6ft 11s  -  2 mph 1011.8mb 60f 58f
10:00pm 7ft 12s  -  2 mph 1011.8mb 60f 58f
9:00pm 7.5ft 9s 2 4 mph 1012.1mb 60f 58f
8:00pm 7.5ft 11s 4 7 mph 1012.5mb 60f 58f
7:00pm 8ft 11s 4 7 mph 1012.5mb 60f 58f
6:00pm 8.5ft 11s 7
mph
1013mb 60f 59f
5:00pm 8ft 11s 7 9 mph 1013.1mb 60f 59f
4:00pm 8.5ft 12s 7 9 mph 1013.4mb 60f 59f
3:00pm 7ft 11s 7 9 mph 1013.7mb 60f 59f
2:00pm 7.5ft 12s 7 9 mph 1014mb 60f 60f
1:00pm 7ft 12s 7 9 mph 1014.2mb 60f 59f
12:00pm 7ft 13s 7 9 mph 1014.1mb 60f 59f
11:00am 7ft 13s 7
mph
1013.8mb 60f 60f
10:00am 7ft 14s 7 9 mph 1013.7mb 60f 60f
9:00am 7ft 14s 7 9 mph 1013.5mb 60f 59f
8:00am 8.5ft 14s 7 9 mph 1013.4mb 60f 59f
7:00am 9.5ft 10s 7 9 mph 1013.4mb 60f 59f
6:00am 10ft 13s 9
mph
1013.3mb 60f 59f
5:00am 10.5ft 12s 9 11 mph 1013.2mb 60f 59f
4:00am 11ft 12s 9 13 mph 1013.3mb 60f 58f
3:00am 11ft 12s 11 13 mph 1013.4mb 60f 58f
2:00am 10ft 12s 9 13 mph 1013.4mb 60f 58f
1:00am 9ft 13s 9 11 mph 1013.5mb 60f 58f
12:00am 9.5ft 12s 9 11 mph 1013.2mb 60f 58f
Mon 09/15 11:00pm 8ft 14s 9 13 mph 1013.1mb 60f 58f
10:00pm 7.5ft 13s 9 11 mph 1012.9mb 60f 59f
9:00pm 7ft 14s 9 13 mph 1012.7mb 60f 59f
8:00pm 8ft 14s 9 13 mph 1012.4mb 60f 59f
7:00pm 7.5ft 14s 9 13 mph 1012.2mb 60f 59f
6:00pm 9ft 13s 9 11 mph 1012.1mb 60f 58f
5:00pm 9.5ft 14s 11
mph
1012mb 60f 57f
4:00pm 10ft 14s 9 11 mph 1012.2mb 60f 56f
3:00pm 10ft 14s 11 13 mph 1012.3mb 60f 56f
2:00pm 11ft 13s 9 13 mph 1012.4mb 60f 55f
1:00pm 11ft 13s 11 16 mph 1012.5mb 60f 56f
12:00pm 11ft 12s 13 16 mph 1012.2mb 60f 57f
11:00am 10.5ft 13s 11 13 mph 1012mb 60f 57f
10:00am 8.5ft 14s 7 9 mph 1011.9mb 60f 58f
9:00am 8ft 14s 4 7 mph 1011.7mb 60f 58f
8:00am 7ft 13s 9
mph
1011.4mb 60f 58f
7:00am 7ft 12s 9 11 mph 1011.3mb 60f 58f
6:00am 6.5ft 12s 7 9 mph 1011.2mb 60f 58f
5:00am 6.5ft 10s 9 11 mph 1011mb 60f 59f
4:00am 6.5ft 12s 16 18 mph 1010.8mb 60f 60f
3:00am 7ft 12s 16 18 mph 1011.1mb 60f 60f
2:00am 6.5ft 9s 18 20 mph 1011.4mb 60f 61f
1:00am 6ft 9s 16 18 mph 1011.6mb 60f 61f
12:00am 6ft 10s 13 16 mph 1011.9mb 60f 61f
Sun 09/14 11:00pm 6ft 10s 16 18 mph 1011.9mb 60f 61f
10:00pm 6.5ft 10s 16 22 mph 1011.8mb 60f 61f
9:00pm 6ft 10s 16 18 mph 1011.9mb 60f 61f
8:00pm 6.5ft 10s 16 18 mph 1011.9mb 60f 61f
7:00pm 6ft 10s 16 18 mph 1012.1mb 60f 60f
6:00pm 6ft 11s 18 20 mph 1012.4mb 60f 60f
5:00pm 6ft 10s 13 18 mph 1012.6mb 60f 61f
4:00pm 6ft 10s 16 18 mph 1013.1mb 60f 60f
3:00pm 6ft 11s 13 18 mph 1013.6mb 60f 61f
2:00pm 6ft 9s 16 18 mph 1014.1mb 60f 61f
1:00pm 6ft 8s 13 18 mph 1014.5mb 60f 60f
12:00pm 6ft 8s 16 18 mph 1014.7mb 60f 60f
11:00am 6.5ft 9s 18 22 mph 1015mb 60f 60f
10:00am 6ft 10s 18 20 mph 1014.8mb 60f 60f
9:00am 7ft 10s 16 18 mph 1014.9mb 60f 60f
8:00am 6ft 10s 20 25 mph 1014.6mb 60f 60f
7:00am 6ft 10s 16 20 mph 1015mb 60f 59f
6:00am 6ft 9s 16 20 mph 1014.9mb 60f 59f
5:00am 6ft 8s 16 18 mph 1015.4mb 60f 59f
4:00am 6.5ft 8s 16 18 mph 1015.8mb 60f 59f
3:00am 6.5ft 9s 13 18 mph 1016.1mb 60f 60f
2:00am 6ft 8s 16 20 mph 1016.2mb 60f 59f
1:00am 6ft 8s 16 20 mph 1016.5mb 60f 60f
12:00am 6ft 8s 18 22 mph 1016.5mb 60f 59f
Sat 09/13 11:00pm 6ft 10s 16 20 mph 1016.8mb 60f 59f
10:00pm 6ft 9s 13 18 mph 1017mb 60f 60f
9:00pm 6.5ft 10s 13 16 mph 1017.4mb 60f 59f
8:00pm 6ft 10s 16 18 mph 1017.6mb 60f 60f
7:00pm 6ft 10s 13 16 mph 1017.5mb 60f 59f
6:00pm 6.5ft 10s 16 18 mph 1017.7mb 60f 59f